Brazoria County Airport Angleton, Lake Jackson US
ICAO: KLBX
IATA: LBX
Category: Medium
Scheduled Services: No

Elevation: 25 ft
TransAlt. 18000 ft.

Airport Communications:
HOUSTON APP/DEP:134.45
ASOS:119.925
CLNC DEL:125.2
CTAF/UNICOM:123

KLBX Zoom In..

If you have problems with the map follow the link
https://www.worldairports.se/pages/airport.php?
ICAO=KLBX

Runways:

(A) RW 17 length 7000 ft width 100 ft
ILS 109.10 / hdg 175

(B) RW 35 length 7000 ft width 100 ft
---- / hdg 355

Location; KLBX
Day. 06 / Time. 01.53 Zulu
* Altimeter: 30.01
* Temperature: 19° c. 66.2°f.
* Wind from: 140° Speed 03 kn.
Dewpoint: 16° c.
Visibility: 10 Statute Miles.
Clouds: Few 2900 ft.

KLBX 060153Z AUTO 14003KT 10SM FEW029 19/16 A3001 RMK AO2 SLP163 T01890156


Wind From 140°
Speed 03 kn.

 
 
jpsmedia worldairports.se 2019   terms of use